sensor_id;sensor_type;location;lat;lon;timestamp;P1;durP1;ratioP1;P2;durP2;ratioP2
57225;SDS011;43082;43.568;22.256;2023-02-23T00:01:27;43.70;;;30.13;;
57225;SDS011;43082;43.568;22.256;2023-02-23T00:03:54;42.08;;;28.83;;
57225;SDS011;43082;43.568;22.256;2023-02-23T00:06:20;36.47;;;26.52;;
57225;SDS011;43082;43.568;22.256;2023-02-23T00:08:46;36.40;;;24.67;;
57225;SDS011;43082;43.568;22.256;2023-02-23T00:11:13;34.33;;;22.65;;
57225;SDS011;43082;43.568;22.256;2023-02-23T00:13:39;31.45;;;22.23;;
57225;SDS011;43082;43.568;22.256;2023-02-23T00:16:10;32.78;;;22.55;;
57225;SDS011;43082;43.568;22.256;2023-02-23T00:18:43;32.05;;;21.75;;
57225;SDS011;43082;43.568;22.256;2023-02-23T00:21:18;23.70;;;17.13;;
57225;SDS011;43082;43.568;22.256;2023-02-23T00:23:49;17.38;;;11.77;;
57225;SDS011;43082;43.568;22.256;2023-02-23T00:26:20;19.05;;;12.13;;
57225;SDS011;43082;43.568;22.256;2023-02-23T00:28:47;17.65;;;12.63;;
57225;SDS011;43082;43.568;22.256;2023-02-23T00:31:13;19.30;;;13.13;;
57225;SDS011;43082;43.568;22.256;2023-02-23T00:33:38;22.35;;;14.45;;
57225;SDS011;43082;43.568;22.256;2023-02-23T00:36:06;21.45;;;14.07;;
57225;SDS011;43082;43.568;22.256;2023-02-23T00:38:33;19.98;;;13.48;;
57225;SDS011;43082;43.568;22.256;2023-02-23T00:41:04;19.50;;;13.68;;
57225;SDS011;43082;43.568;22.256;2023-02-23T00:43:34;19.85;;;13.05;;
57225;SDS011;43082;43.568;22.256;2023-02-23T00:46:00;20.05;;;12.85;;
57225;SDS011;43082;43.568;22.256;2023-02-23T00:48:29;18.70;;;12.35;;
57225;SDS011;43082;43.568;22.256;2023-02-23T00:51:02;19.67;;;13.60;;
57225;SDS011;43082;43.568;22.256;2023-02-23T00:53:31;18.77;;;13.40;;
57225;SDS011;43082;43.568;22.256;2023-02-23T00:55:56;21.35;;;14.80;;
57225;SDS011;43082;43.568;22.256;2023-02-23T00:58:23;25.73;;;16.75;;
57225;SDS011;43082;43.568;22.256;2023-02-23T01:00:50;28.95;;;18.38;;
57225;SDS011;43082;43.568;22.256;2023-02-23T01:03:15;55.88;;;38.35;;
57225;SDS011;43082;43.568;22.256;2023-02-23T01:05:41;50.78;;;35.30;;
57225;SDS011;43082;43.568;22.256;2023-02-23T01:08:07;46.80;;;32.42;;
57225;SDS011;43082;43.568;22.256;2023-02-23T01:10:40;44.05;;;31.20;;
57225;SDS011;43082;43.568;22.256;2023-02-23T01:13:07;43.72;;;30.25;;
57225;SDS011;43082;43.568;22.256;2023-02-23T01:15:41;45.55;;;30.35;;
57225;SDS011;43082;43.568;22.256;2023-02-23T01:18:08;39.20;;;27.75;;
57225;SDS011;43082;43.568;22.256;2023-02-23T01:20:35;40.20;;;27.02;;
57225;SDS011;43082;43.568;22.256;2023-02-23T01:23:01;34.67;;;23.65;;
57225;SDS011;43082;43.568;22.256;2023-02-23T01:25:26;36.13;;;24.30;;
57225;SDS011;43082;43.568;22.256;2023-02-23T01:27:53;33.88;;;24.00;;
57225;SDS011;43082;43.568;22.256;2023-02-23T01:30:19;32.58;;;22.08;;
57225;SDS011;43082;43.568;22.256;2023-02-23T01:32:45;33.42;;;23.00;;
57225;SDS011;43082;43.568;22.256;2023-02-23T01:35:11;32.47;;;21.23;;
57225;SDS011;43082;43.568;22.256;2023-02-23T01:37:37;39.70;;;26.90;;
57225;SDS011;43082;43.568;22.256;2023-02-23T01:40:05;35.80;;;22.80;;
57225;SDS011;43082;43.568;22.256;2023-02-23T01:42:53;24.08;;;16.75;;
57225;SDS011;43082;43.568;22.256;2023-02-23T01:47:57;24.67;;;16.20;;
57225;SDS011;43082;43.568;22.256;2023-02-23T01:50:26;31.20;;;21.23;;
57225;SDS011;43082;43.568;22.256;2023-02-23T01:52:52;31.38;;;20.98;;
57225;SDS011;43082;43.568;22.256;2023-02-23T01:55:18;33.75;;;21.63;;
57225;SDS011;43082;43.568;22.256;2023-02-23T01:57:49;29.08;;;19.98;;
57225;SDS011;43082;43.568;22.256;2023-02-23T02:00:17;33.40;;;21.23;;
57225;SDS011;43082;43.568;22.256;2023-02-23T02:02:44;30.30;;;21.48;;
57225;SDS011;43082;43.568;22.256;2023-02-23T02:05:12;30.67;;;20.30;;
57225;SDS011;43082;43.568;22.256;2023-02-23T02:07:40;42.00;;;27.23;;
57225;SDS011;43082;43.568;22.256;2023-02-23T02:10:10;42.45;;;26.55;;
57225;SDS011;43082;43.568;22.256;2023-02-23T02:12:42;43.45;;;27.40;;
57225;SDS011;43082;43.568;22.256;2023-02-23T02:15:09;42.73;;;25.87;;
57225;SDS011;43082;43.568;22.256;2023-02-23T02:28:55;39.55;;;21.88;;
57225;SDS011;43082;43.568;22.256;2023-02-23T02:39:25;28.80;;;19.58;;
57225;SDS011;43082;43.568;22.256;2023-02-23T02:47:45;35.33;;;24.38;;
57225;SDS011;43082;43.568;22.256;2023-02-23T02:53:04;29.13;;;18.65;;
57225;SDS011;43082;43.568;22.256;2023-02-23T02:55:32;26.25;;;16.65;;
57225;SDS011;43082;43.568;22.256;2023-02-23T02:57:59;26.58;;;18.20;;
57225;SDS011;43082;43.568;22.256;2023-02-23T03:00:47;26.42;;;17.02;;
57225;SDS011;43082;43.568;22.256;2023-02-23T03:06:29;26.33;;;17.08;;
57225;SDS011;43082;43.568;22.256;2023-02-23T03:12:32;29.83;;;19.63;;
57225;SDS011;43082;43.568;22.256;2023-02-23T03:18:54;13.30;;;8.68;;
57225;SDS011;43082;43.568;22.256;2023-02-23T03:21:46;16.38;;;10.18;;
57225;SDS011;43082;43.568;22.256;2023-02-23T03:24:50;19.15;;;12.20;;
57225;SDS011;43082;43.568;22.256;2023-02-23T03:27:49;21.15;;;13.10;;
57225;SDS011;43082;43.568;22.256;2023-02-23T03:33:37;19.52;;;12.65;;
57225;SDS011;43082;43.568;22.256;2023-02-23T03:36:42;21.38;;;13.95;;
57225;SDS011;43082;43.568;22.256;2023-02-23T03:39:32;22.45;;;13.75;;
57225;SDS011;43082;43.568;22.256;2023-02-23T03:42:25;21.92;;;14.55;;
57225;SDS011;43082;43.568;22.256;2023-02-23T03:45:11;20.08;;;13.88;;
57225;SDS011;43082;43.568;22.256;2023-02-23T03:47:59;21.65;;;14.10;;
57225;SDS011;43082;43.568;22.256;2023-02-23T03:50:46;32.95;;;18.25;;
57225;SDS011;43082;43.568;22.256;2023-02-23T03:53:34;29.17;;;18.15;;
57225;SDS011;43082;43.568;22.256;2023-02-23T03:56:26;27.95;;;17.73;;
57225;SDS011;43082;43.568;22.256;2023-02-23T03:59:11;32.78;;;21.38;;
57225;SDS011;43082;43.568;22.256;2023-02-23T04:01:57;32.13;;;21.67;;
57225;SDS011;43082;43.568;22.256;2023-02-23T04:04:42;27.20;;;18.95;;
57225;SDS011;43082;43.568;22.256;2023-02-23T04:07:27;22.48;;;16.13;;
57225;SDS011;43082;43.568;22.256;2023-02-23T04:10:11;25.17;;;16.77;;
57225;SDS011;43082;43.568;22.256;2023-02-23T04:18:16;23.42;;;14.77;;
57225;SDS011;43082;43.568;22.256;2023-02-23T04:20:45;21.13;;;14.73;;
57225;SDS011;43082;43.568;22.256;2023-02-23T04:23:10;22.27;;;13.80;;
57225;SDS011;43082;43.568;22.256;2023-02-23T04:25:35;21.50;;;15.27;;
57225;SDS011;43082;43.568;22.256;2023-02-23T04:28:01;21.85;;;15.07;;
57225;SDS011;43082;43.568;22.256;2023-02-23T04:30:27;22.60;;;15.40;;
57225;SDS011;43082;43.568;22.256;2023-02-23T04:32:53;28.98;;;16.33;;
57225;SDS011;43082;43.568;22.256;2023-02-23T04:35:20;20.42;;;14.68;;
57225;SDS011;43082;43.568;22.256;2023-02-23T04:37:45;20.33;;;13.52;;
57225;SDS011;43082;43.568;22.256;2023-02-23T04:40:11;19.05;;;13.15;;
57225;SDS011;43082;43.568;22.256;2023-02-23T04:42:37;16.90;;;11.57;;
57225;SDS011;43082;43.568;22.256;2023-02-23T04:45:03;14.82;;;10.15;;
57225;SDS011;43082;43.568;22.256;2023-02-23T04:47:29;16.80;;;11.43;;
57225;SDS011;43082;43.568;22.256;2023-02-23T04:49:55;17.10;;;11.18;;
57225;SDS011;43082;43.568;22.256;2023-02-23T04:52:20;19.35;;;11.15;;
57225;SDS011;43082;43.568;22.256;2023-02-23T04:54:45;16.33;;;10.88;;
57225;SDS011;43082;43.568;22.256;2023-02-23T04:57:11;20.05;;;12.90;;
57225;SDS011;43082;43.568;22.256;2023-02-23T04:59:36;21.67;;;13.25;;
57225;SDS011;43082;43.568;22.256;2023-02-23T05:02:01;19.60;;;13.18;;
57225;SDS011;43082;43.568;22.256;2023-02-23T05:04:27;21.17;;;13.32;;
57225;SDS011;43082;43.568;22.256;2023-02-23T05:06:52;19.20;;;12.77;;
57225;SDS011;43082;43.568;22.256;2023-02-23T05:09:18;26.08;;;15.32;;
57225;SDS011;43082;43.568;22.256;2023-02-23T05:11:44;24.38;;;14.68;;
57225;SDS011;43082;43.568;22.256;2023-02-23T05:14:10;28.35;;;15.30;;
57225;SDS011;43082;43.568;22.256;2023-02-23T05:16:36;21.65;;;13.93;;
57225;SDS011;43082;43.568;22.256;2023-02-23T05:19:02;25.55;;;16.08;;
57225;SDS011;43082;43.568;22.256;2023-02-23T05:21:28;24.80;;;16.05;;
57225;SDS011;43082;43.568;22.256;2023-02-23T05:23:53;26.52;;;16.40;;
57225;SDS011;43082;43.568;22.256;2023-02-23T05:26:19;28.52;;;16.48;;
57225;SDS011;43082;43.568;22.256;2023-02-23T05:28:44;22.15;;;14.70;;
57225;SDS011;43082;43.568;22.256;2023-02-23T05:31:10;23.98;;;14.60;;
57225;SDS011;43082;43.568;22.256;2023-02-23T05:33:35;29.42;;;17.08;;
57225;SDS011;43082;43.568;22.256;2023-02-23T05:36:10;29.45;;;19.55;;
57225;SDS011;43082;43.568;22.256;2023-02-23T05:38:37;29.90;;;20.63;;
57225;SDS011;43082;43.568;22.256;2023-02-23T05:41:05;38.22;;;25.77;;
57225;SDS011;43082;43.568;22.256;2023-02-23T05:43:31;40.35;;;29.45;;
57225;SDS011;43082;43.568;22.256;2023-02-23T05:45:56;39.10;;;28.08;;
57225;SDS011;43082;43.568;22.256;2023-02-23T05:48:22;33.58;;;23.17;;
57225;SDS011;43082;43.568;22.256;2023-02-23T05:50:47;32.28;;;22.33;;
57225;SDS011;43082;43.568;22.256;2023-02-23T05:53:13;33.83;;;24.27;;
57225;SDS011;43082;43.568;22.256;2023-02-23T05:55:39;36.90;;;24.90;;
57225;SDS011;43082;43.568;22.256;2023-02-23T05:58:04;41.35;;;28.95;;
57225;SDS011;43082;43.568;22.256;2023-02-23T06:00:30;45.38;;;31.15;;
57225;SDS011;43082;43.568;22.256;2023-02-23T06:02:55;53.38;;;35.38;;
57225;SDS011;43082;43.568;22.256;2023-02-23T06:05:21;57.42;;;38.00;;
57225;SDS011;43082;43.568;22.256;2023-02-23T06:07:46;43.13;;;31.10;;
57225;SDS011;43082;43.568;22.256;2023-02-23T06:10:12;40.13;;;26.92;;
57225;SDS011;43082;43.568;22.256;2023-02-23T06:12:38;41.13;;;27.58;;
57225;SDS011;43082;43.568;22.256;2023-02-23T06:15:04;43.20;;;28.80;;
57225;SDS011;43082;43.568;22.256;2023-02-23T06:17:29;32.92;;;22.65;;
57225;SDS011;43082;43.568;22.256;2023-02-23T06:19:56;41.97;;;29.33;;
57225;SDS011;43082;43.568;22.256;2023-02-23T06:22:22;38.78;;;28.30;;
57225;SDS011;43082;43.568;22.256;2023-02-23T06:24:48;42.70;;;31.60;;
57225;SDS011;43082;43.568;22.256;2023-02-23T06:27:13;60.53;;;39.22;;
57225;SDS011;43082;43.568;22.256;2023-02-23T06:29:39;48.65;;;34.85;;
57225;SDS011;43082;43.568;22.256;2023-02-23T06:32:05;71.93;;;51.88;;
57225;SDS011;43082;43.568;22.256;2023-02-23T06:34:31;73.18;;;55.20;;
57225;SDS011;43082;43.568;22.256;2023-02-23T06:36:57;92.32;;;62.15;;
57225;SDS011;43082;43.568;22.256;2023-02-23T06:39:23;100.90;;;72.00;;
57225;SDS011;43082;43.568;22.256;2023-02-23T06:41:48;122.70;;;81.97;;
57225;SDS011;43082;43.568;22.256;2023-02-23T06:44:13;101.93;;;64.28;;
57225;SDS011;43082;43.568;22.256;2023-02-23T06:46:39;100.13;;;61.63;;
57225;SDS011;43082;43.568;22.256;2023-02-23T06:49:04;114.80;;;78.78;;
57225;SDS011;43082;43.568;22.256;2023-02-23T06:51:30;82.07;;;55.40;;
57225;SDS011;43082;43.568;22.256;2023-02-23T06:53:55;61.45;;;42.78;;
57225;SDS011;43082;43.568;22.256;2023-02-23T06:56:21;59.03;;;39.53;;
57225;SDS011;43082;43.568;22.256;2023-02-23T06:58:46;68.85;;;47.60;;
57225;SDS011;43082;43.568;22.256;2023-02-23T07:01:12;50.88;;;35.60;;
57225;SDS011;43082;43.568;22.256;2023-02-23T07:03:38;64.70;;;46.80;;
57225;SDS011;43082;43.568;22.256;2023-02-23T07:06:04;85.57;;;58.15;;
57225;SDS011;43082;43.568;22.256;2023-02-23T07:08:30;68.68;;;49.45;;
57225;SDS011;43082;43.568;22.256;2023-02-23T07:11:03;65.97;;;47.33;;
57225;SDS011;43082;43.568;22.256;2023-02-23T07:13:31;55.88;;;42.00;;
57225;SDS011;43082;43.568;22.256;2023-02-23T07:15:56;44.20;;;31.83;;
57225;SDS011;43082;43.568;22.256;2023-02-23T07:18:21;103.32;;;63.50;;
57225;SDS011;43082;43.568;22.256;2023-02-23T07:20:48;78.18;;;48.80;;
57225;SDS011;43082;43.568;22.256;2023-02-23T07:23:15;104.05;;;66.20;;
57225;SDS011;43082;43.568;22.256;2023-02-23T07:25:41;48.88;;;34.92;;
57225;SDS011;43082;43.568;22.256;2023-02-23T07:28:07;70.88;;;48.33;;
57225;SDS011;43082;43.568;22.256;2023-02-23T07:30:32;117.43;;;75.90;;
57225;SDS011;43082;43.568;22.256;2023-02-23T07:32:57;72.13;;;49.53;;
57225;SDS011;43082;43.568;22.256;2023-02-23T07:35:23;111.85;;;73.18;;
57225;SDS011;43082;43.568;22.256;2023-02-23T07:37:48;74.95;;;50.13;;
57225;SDS011;43082;43.568;22.256;2023-02-23T07:40:14;81.32;;;52.75;;
57225;SDS011;43082;43.568;22.256;2023-02-23T07:42:39;71.63;;;48.15;;
57225;SDS011;43082;43.568;22.256;2023-02-23T07:45:05;71.35;;;47.35;;
57225;SDS011;43082;43.568;22.256;2023-02-23T07:47:31;66.32;;;47.08;;
57225;SDS011;43082;43.568;22.256;2023-02-23T07:49:57;58.70;;;42.40;;
57225;SDS011;43082;43.568;22.256;2023-02-23T07:52:23;52.88;;;37.08;;
57225;SDS011;43082;43.568;22.256;2023-02-23T07:54:49;46.05;;;33.95;;
57225;SDS011;43082;43.568;22.256;2023-02-23T07:57:14;47.97;;;34.38;;
57225;SDS011;43082;43.568;22.256;2023-02-23T07:59:40;57.13;;;40.63;;
57225;SDS011;43082;43.568;22.256;2023-02-23T08:02:06;42.85;;;29.00;;
57225;SDS011;43082;43.568;22.256;2023-02-23T08:04:32;25.45;;;17.45;;
57225;SDS011;43082;43.568;22.256;2023-02-23T08:06:57;23.83;;;15.73;;
57225;SDS011;43082;43.568;22.256;2023-02-23T08:09:22;21.58;;;13.65;;
57225;SDS011;43082;43.568;22.256;2023-02-23T08:11:48;30.20;;;19.52;;
57225;SDS011;43082;43.568;22.256;2023-02-23T08:14:13;24.88;;;15.70;;
57225;SDS011;43082;43.568;22.256;2023-02-23T08:16:39;19.05;;;11.27;;
57225;SDS011;43082;43.568;22.256;2023-02-23T08:19:04;17.52;;;10.40;;
57225;SDS011;43082;43.568;22.256;2023-02-23T08:21:29;17.98;;;11.60;;
57225;SDS011;43082;43.568;22.256;2023-02-23T08:23:56;17.30;;;11.35;;
57225;SDS011;43082;43.568;22.256;2023-02-23T08:26:21;16.92;;;11.52;;
57225;SDS011;43082;43.568;22.256;2023-02-23T08:28:49;20.67;;;11.98;;
57225;SDS011;43082;43.568;22.256;2023-02-23T08:31:15;16.60;;;11.30;;
57225;SDS011;43082;43.568;22.256;2023-02-23T08:33:43;16.52;;;11.43;;
57225;SDS011;43082;43.568;22.256;2023-02-23T08:36:08;20.55;;;13.13;;
57225;SDS011;43082;43.568;22.256;2023-02-23T08:38:34;23.92;;;14.88;;
57225;SDS011;43082;43.568;22.256;2023-02-23T08:41:03;18.52;;;10.43;;
57225;SDS011;43082;43.568;22.256;2023-02-23T08:43:29;14.07;;;9.15;;
57225;SDS011;43082;43.568;22.256;2023-02-23T08:45:55;20.02;;;10.50;;
57225;SDS011;43082;43.568;22.256;2023-02-23T08:48:20;18.63;;;12.27;;
57225;SDS011;43082;43.568;22.256;2023-02-23T08:50:49;17.77;;;9.70;;
57225;SDS011;43082;43.568;22.256;2023-02-23T08:53:15;17.58;;;9.68;;
57225;SDS011;43082;43.568;22.256;2023-02-23T08:55:41;17.55;;;9.15;;
57225;SDS011;43082;43.568;22.256;2023-02-23T08:58:07;17.80;;;9.00;;
57225;SDS011;43082;43.568;22.256;2023-02-23T09:00:34;11.93;;;7.95;;
57225;SDS011;43082;43.568;22.256;2023-02-23T09:03:03;23.52;;;14.57;;
57225;SDS011;43082;43.568;22.256;2023-02-23T09:05:29;16.77;;;10.30;;
57225;SDS011;43082;43.568;22.256;2023-02-23T09:08:00;15.15;;;7.85;;
57225;SDS011;43082;43.568;22.256;2023-02-23T09:10:26;15.63;;;8.77;;
57225;SDS011;43082;43.568;22.256;2023-02-23T09:12:53;24.00;;;15.27;;
57225;SDS011;43082;43.568;22.256;2023-02-23T09:15:22;17.80;;;7.57;;
57225;SDS011;43082;43.568;22.256;2023-02-23T09:17:47;16.15;;;7.40;;
57225;SDS011;43082;43.568;22.256;2023-02-23T09:20:14;15.70;;;9.18;;
57225;SDS011;43082;43.568;22.256;2023-02-23T09:22:40;20.98;;;10.10;;
57225;SDS011;43082;43.568;22.256;2023-02-23T09:25:13;15.68;;;8.20;;
57225;SDS011;43082;43.568;22.256;2023-02-23T09:27:42;18.38;;;10.55;;
57225;SDS011;43082;43.568;22.256;2023-02-23T09:30:08;16.52;;;8.75;;
57225;SDS011;43082;43.568;22.256;2023-02-23T09:32:48;13.75;;;7.72;;
57225;SDS011;43082;43.568;22.256;2023-02-23T09:35:15;14.57;;;7.28;;
57225;SDS011;43082;43.568;22.256;2023-02-23T09:37:49;13.75;;;7.63;;
57225;SDS011;43082;43.568;22.256;2023-02-23T09:40:16;14.18;;;7.85;;
57225;SDS011;43082;43.568;22.256;2023-02-23T09:48:16;13.20;;;7.30;;
57225;SDS011;43082;43.568;22.256;2023-02-23T09:50:45;16.65;;;7.65;;
57225;SDS011;43082;43.568;22.256;2023-02-23T09:53:24;13.63;;;6.88;;
57225;SDS011;43082;43.568;22.256;2023-02-23T09:55:55;13.45;;;6.88;;
57225;SDS011;43082;43.568;22.256;2023-02-23T09:58:30;16.05;;;7.93;;
57225;SDS011;43082;43.568;22.256;2023-02-23T10:06:27;16.27;;;7.65;;
57225;SDS011;43082;43.568;22.256;2023-02-23T10:14:29;14.90;;;8.77;;
57225;SDS011;43082;43.568;22.256;2023-02-23T10:22:23;15.02;;;6.40;;
57225;SDS011;43082;43.568;22.256;2023-02-23T10:24:55;15.52;;;8.63;;
57225;SDS011;43082;43.568;22.256;2023-02-23T10:27:28;14.93;;;8.52;;
57225;SDS011;43082;43.568;22.256;2023-02-23T10:30:11;14.63;;;7.15;;
57225;SDS011;43082;43.568;22.256;2023-02-23T10:32:46;16.83;;;7.25;;
57225;SDS011;43082;43.568;22.256;2023-02-23T10:35:15;14.10;;;7.15;;
57225;SDS011;43082;43.568;22.256;2023-02-23T10:37:44;17.50;;;8.93;;
57225;SDS011;43082;43.568;22.256;2023-02-23T10:40:14;17.75;;;8.20;;
57225;SDS011;43082;43.568;22.256;2023-02-23T10:42:41;14.52;;;6.82;;
57225;SDS011;43082;43.568;22.256;2023-02-23T10:45:17;17.50;;;7.53;;
57225;SDS011;43082;43.568;22.256;2023-02-23T10:47:48;12.80;;;6.72;;
57225;SDS011;43082;43.568;22.256;2023-02-23T10:50:19;15.85;;;6.85;;
57225;SDS011;43082;43.568;22.256;2023-02-23T10:52:47;16.33;;;7.13;;
57225;SDS011;43082;43.568;22.256;2023-02-23T10:55:21;12.90;;;7.07;;
57225;SDS011;43082;43.568;22.256;2023-02-23T10:58:01;14.02;;;7.78;;
57225;SDS011;43082;43.568;22.256;2023-02-23T11:00:28;16.45;;;7.15;;
57225;SDS011;43082;43.568;22.256;2023-02-23T11:02:57;14.65;;;6.88;;
57225;SDS011;43082;43.568;22.256;2023-02-23T11:05:42;17.23;;;7.88;;
57225;SDS011;43082;43.568;22.256;2023-02-23T11:08:09;18.25;;;6.82;;
57225;SDS011;43082;43.568;22.256;2023-02-23T11:13:42;13.50;;;7.15;;
57225;SDS011;43082;43.568;22.256;2023-02-23T11:16:16;15.73;;;6.50;;
57225;SDS011;43082;43.568;22.256;2023-02-23T11:18:49;15.15;;;6.63;;
57225;SDS011;43082;43.568;22.256;2023-02-23T11:21:34;14.93;;;7.45;;
57225;SDS011;43082;43.568;22.256;2023-02-23T11:26:51;11.30;;;6.63;;
57225;SDS011;43082;43.568;22.256;2023-02-23T11:29:24;14.70;;;6.65;;
57225;SDS011;43082;43.568;22.256;2023-02-23T11:31:58;13.85;;;7.55;;
57225;SDS011;43082;43.568;22.256;2023-02-23T11:34:28;13.98;;;6.10;;
57225;SDS011;43082;43.568;22.256;2023-02-23T11:37:04;14.10;;;6.45;;
57225;SDS011;43082;43.568;22.256;2023-02-23T11:39:31;15.27;;;8.40;;
57225;SDS011;43082;43.568;22.256;2023-02-23T11:42:14;12.13;;;6.32;;
57225;SDS011;43082;43.568;22.256;2023-02-23T11:44:51;14.00;;;6.35;;
57225;SDS011;43082;43.568;22.256;2023-02-23T11:47:27;16.73;;;8.30;;
57225;SDS011;43082;43.568;22.256;2023-02-23T11:49:53;16.27;;;6.68;;
57225;SDS011;43082;43.568;22.256;2023-02-23T11:52:20;10.95;;;5.68;;
57225;SDS011;43082;43.568;22.256;2023-02-23T11:54:51;22.48;;;12.20;;
57225;SDS011;43082;43.568;22.256;2023-02-23T11:57:25;15.48;;;6.43;;
57225;SDS011;43082;43.568;22.256;2023-02-23T11:59:54;14.45;;;5.68;;
57225;SDS011;43082;43.568;22.256;2023-02-23T12:02:22;18.55;;;9.35;;
57225;SDS011;43082;43.568;22.256;2023-02-23T12:04:50;13.85;;;6.93;;
57225;SDS011;43082;43.568;22.256;2023-02-23T12:07:20;19.27;;;9.20;;
57225;SDS011;43082;43.568;22.256;2023-02-23T12:09:56;15.80;;;6.53;;
57225;SDS011;43082;43.568;22.256;2023-02-23T12:12:25;12.15;;;6.43;;
57225;SDS011;43082;43.568;22.256;2023-02-23T12:14:55;18.10;;;8.40;;
57225;SDS011;43082;43.568;22.256;2023-02-23T12:17:26;13.75;;;7.75;;
57225;SDS011;43082;43.568;22.256;2023-02-23T12:19:55;12.30;;;6.10;;
57225;SDS011;43082;43.568;22.256;2023-02-23T12:22:31;16.83;;;10.10;;
57225;SDS011;43082;43.568;22.256;2023-02-23T12:33:04;12.48;;;7.68;;
57225;SDS011;43082;43.568;22.256;2023-02-23T12:38:32;12.80;;;5.88;;
57225;SDS011;43082;43.568;22.256;2023-02-23T12:41:12;16.83;;;6.53;;
57225;SDS011;43082;43.568;22.256;2023-02-23T12:43:47;12.88;;;7.05;;
57225;SDS011;43082;43.568;22.256;2023-02-23T12:46:23;9.60;;;4.68;;
57225;SDS011;43082;43.568;22.256;2023-02-23T12:51:49;11.18;;;5.82;;
57225;SDS011;43082;43.568;22.256;2023-02-23T12:54:15;12.95;;;6.35;;
57225;SDS011;43082;43.568;22.256;2023-02-23T12:59:22;12.23;;;5.78;;
57225;SDS011;43082;43.568;22.256;2023-02-23T13:02:11;11.00;;;6.30;;
57225;SDS011;43082;43.568;22.256;2023-02-23T13:04:48;11.88;;;6.53;;
57225;SDS011;43082;43.568;22.256;2023-02-23T13:10:35;11.50;;;5.70;;
57225;SDS011;43082;43.568;22.256;2023-02-23T13:18:37;13.93;;;6.70;;
57225;SDS011;43082;43.568;22.256;2023-02-23T13:21:13;14.77;;;6.57;;
57225;SDS011;43082;43.568;22.256;2023-02-23T13:23:47;14.13;;;4.93;;
57225;SDS011;43082;43.568;22.256;2023-02-23T13:29:09;13.38;;;6.88;;
57225;SDS011;43082;43.568;22.256;2023-02-23T13:31:58;14.05;;;6.35;;
57225;SDS011;43082;43.568;22.256;2023-02-23T13:34:34;12.82;;;6.55;;
57225;SDS011;43082;43.568;22.256;2023-02-23T13:37:07;13.70;;;6.63;;
57225;SDS011;43082;43.568;22.256;2023-02-23T13:53:24;11.93;;;5.78;;
57225;SDS011;43082;43.568;22.256;2023-02-23T13:55:59;10.48;;;5.20;;
57225;SDS011;43082;43.568;22.256;2023-02-23T13:58:27;12.05;;;6.28;;
57225;SDS011;43082;43.568;22.256;2023-02-23T14:03:42;24.60;;;15.30;;
57225;SDS011;43082;43.568;22.256;2023-02-23T14:06:11;14.07;;;6.88;;
57225;SDS011;43082;43.568;22.256;2023-02-23T14:08:38;14.18;;;6.85;;
57225;SDS011;43082;43.568;22.256;2023-02-23T14:11:06;16.45;;;6.40;;
57225;SDS011;43082;43.568;22.256;2023-02-23T14:13:33;13.93;;;6.20;;
57225;SDS011;43082;43.568;22.256;2023-02-23T14:18:49;16.50;;;7.97;;
57225;SDS011;43082;43.568;22.256;2023-02-23T14:24:23;14.25;;;5.63;;
57225;SDS011;43082;43.568;22.256;2023-02-23T14:32:42;16.85;;;9.15;;
57225;SDS011;43082;43.568;22.256;2023-02-23T14:40:41;13.00;;;6.63;;
57225;SDS011;43082;43.568;22.256;2023-02-23T14:45:58;14.27;;;6.78;;
57225;SDS011;43082;43.568;22.256;2023-02-23T14:48:25;14.77;;;7.88;;
57225;SDS011;43082;43.568;22.256;2023-02-23T14:50:51;20.30;;;8.38;;
57225;SDS011;43082;43.568;22.256;2023-02-23T14:53:41;15.95;;;7.80;;
57225;SDS011;43082;43.568;22.256;2023-02-23T14:56:15;16.02;;;8.05;;
57225;SDS011;43082;43.568;22.256;2023-02-23T14:58:42;12.00;;;5.80;;
57225;SDS011;43082;43.568;22.256;2023-02-23T15:01:30;17.20;;;7.00;;
57225;SDS011;43082;43.568;22.256;2023-02-23T15:06:34;11.23;;;5.82;;
57225;SDS011;43082;43.568;22.256;2023-02-23T15:09:00;14.80;;;6.07;;
57225;SDS011;43082;43.568;22.256;2023-02-23T15:11:26;13.07;;;7.10;;
57225;SDS011;43082;43.568;22.256;2023-02-23T15:13:52;13.38;;;6.70;;
57225;SDS011;43082;43.568;22.256;2023-02-23T15:16:29;14.30;;;7.60;;
57225;SDS011;43082;43.568;22.256;2023-02-23T15:18:56;17.45;;;7.88;;
57225;SDS011;43082;43.568;22.256;2023-02-23T15:21:23;14.52;;;7.20;;
57225;SDS011;43082;43.568;22.256;2023-02-23T15:23:50;14.77;;;7.25;;
57225;SDS011;43082;43.568;22.256;2023-02-23T15:26:28;15.55;;;7.28;;
57225;SDS011;43082;43.568;22.256;2023-02-23T15:32:08;14.02;;;6.65;;
57225;SDS011;43082;43.568;22.256;2023-02-23T15:34:44;13.63;;;7.68;;
57225;SDS011;43082;43.568;22.256;2023-02-23T15:37:19;12.32;;;6.80;;
57225;SDS011;43082;43.568;22.256;2023-02-23T15:39:55;14.98;;;6.25;;
57225;SDS011;43082;43.568;22.256;2023-02-23T15:42:25;14.25;;;7.90;;
57225;SDS011;43082;43.568;22.256;2023-02-23T15:45:04;15.27;;;7.55;;
57225;SDS011;43082;43.568;22.256;2023-02-23T15:47:37;14.25;;;8.05;;
57225;SDS011;43082;43.568;22.256;2023-02-23T15:50:07;11.77;;;7.55;;
57225;SDS011;43082;43.568;22.256;2023-02-23T15:52:43;14.95;;;6.82;;
57225;SDS011;43082;43.568;22.256;2023-02-23T15:55:12;17.50;;;8.50;;
57225;SDS011;43082;43.568;22.256;2023-02-23T15:57:53;11.90;;;6.40;;
57225;SDS011;43082;43.568;22.256;2023-02-23T16:00:24;14.07;;;8.10;;
57225;SDS011;43082;43.568;22.256;2023-02-23T16:03:32;13.57;;;7.03;;
57225;SDS011;43082;43.568;22.256;2023-02-23T16:06:06;11.75;;;6.43;;
57225;SDS011;43082;43.568;22.256;2023-02-23T16:08:57;13.65;;;6.53;;
57225;SDS011;43082;43.568;22.256;2023-02-23T16:11:30;14.63;;;7.63;;
57225;SDS011;43082;43.568;22.256;2023-02-23T16:13:59;13.43;;;7.80;;
57225;SDS011;43082;43.568;22.256;2023-02-23T16:16:25;15.93;;;8.43;;
57225;SDS011;43082;43.568;22.256;2023-02-23T16:18:52;15.40;;;7.82;;
57225;SDS011;43082;43.568;22.256;2023-02-23T16:21:20;12.55;;;7.28;;
57225;SDS011;43082;43.568;22.256;2023-02-23T16:23:48;18.95;;;9.75;;
57225;SDS011;43082;43.568;22.256;2023-02-23T16:26:22;13.70;;;7.80;;
57225;SDS011;43082;43.568;22.256;2023-02-23T16:28:52;14.90;;;7.63;;
57225;SDS011;43082;43.568;22.256;2023-02-23T16:31:23;13.95;;;8.25;;
57225;SDS011;43082;43.568;22.256;2023-02-23T16:36:33;12.10;;;6.55;;
57225;SDS011;43082;43.568;22.256;2023-02-23T16:39:03;13.18;;;6.90;;
57225;SDS011;43082;43.568;22.256;2023-02-23T16:41:33;13.30;;;7.07;;
57225;SDS011;43082;43.568;22.256;2023-02-23T16:43:59;13.68;;;7.68;;
57225;SDS011;43082;43.568;22.256;2023-02-23T16:46:27;14.50;;;6.85;;
57225;SDS011;43082;43.568;22.256;2023-02-23T16:48:57;13.85;;;7.10;;
57225;SDS011;43082;43.568;22.256;2023-02-23T16:51:23;12.38;;;7.35;;
57225;SDS011;43082;43.568;22.256;2023-02-23T16:53:49;16.05;;;8.25;;
57225;SDS011;43082;43.568;22.256;2023-02-23T16:56:16;12.20;;;7.13;;
57225;SDS011;43082;43.568;22.256;2023-02-23T16:58:43;12.35;;;6.95;;
57225;SDS011;43082;43.568;22.256;2023-02-23T17:01:11;12.02;;;7.13;;